ARG2256 SABE-SAZS
Flight info
| Callsign | ARG2256 |
|---|---|
| Flight time | 2h 2m |
| Altitude | 36000 |
| Route | PAL9 TORUL UT654 ORERA ORERA2Q |
| Aircraft | B737/M-SDE2E3FGHIRWXY/LB1 |
Departure
| Time | 2026-05-09 19:37 |
|---|---|
| Airport | Aeroparque Jorge Newbery (SABE) |
Arrival
| Time | 2026-05-09 21:39 |
|---|---|
| Airport | Teniente Luis Candelaria International Airport (SAZS) |
| Time | Latitude | Longitude | Altitude | Speed | Heading |
|---|---|---|---|---|---|
| 2026-05-09 18:53 | -34.55689 | -58.41441 | 26 ft | 0 kts | 17° |
| 2026-05-09 19:26 | -34.55689 | -58.41442 | 26 ft | 2 kts | 17° |
| 2026-05-09 19:27 | -34.55705 | -58.41447 | 31 ft | 2 kts | 17° |
| 2026-05-09 19:27 | -34.55721 | -58.41453 | 29 ft | 2 kts | 18° |
| 2026-05-09 19:27 | -34.55737 | -58.41459 | 29 ft | 2 kts | 327° |
| 2026-05-09 19:27 | -34.55746 | -58.41443 | 30 ft | 2 kts | 294° |
| 2026-05-09 19:28 | -34.55754 | -58.41426 | 30 ft | 2 kts | 311° |
| 2026-05-09 19:28 | -34.55758 | -58.41420 | 29 ft | 0 kts | 293° |
| 2026-05-09 19:28 | -34.55758 | -58.41421 | 29 ft | 0 kts | 293° |
| 2026-05-09 19:31 | -34.55755 | -58.41428 | 30 ft | 2 kts | 293° |
| 2026-05-09 19:32 | -34.55740 | -58.41459 | 29 ft | 7 kts | 298° |
| 2026-05-09 19:32 | -34.55719 | -58.41521 | 29 ft | 8 kts | 276° |
| 2026-05-09 19:32 | -34.55754 | -58.41573 | 26 ft | 8 kts | 215° |
| 2026-05-09 19:32 | -34.55776 | -58.41634 | 25 ft | 8 kts | 274° |
| 2026-05-09 19:33 | -34.55755 | -58.41698 | 25 ft | 8 kts | 295° |
| 2026-05-09 19:33 | -34.55731 | -58.41757 | 27 ft | 8 kts | 296° |
| 2026-05-09 19:33 | -34.55702 | -58.41810 | 26 ft | 7 kts | 305° |
| 2026-05-09 19:33 | -34.55673 | -58.41861 | 28 ft | 7 kts | 304° |
| 2026-05-09 19:34 | -34.55645 | -58.41911 | 27 ft | 7 kts | 304° |
| 2026-05-09 19:34 | -34.55617 | -58.41959 | 27 ft | 7 kts | 304° |
| 2026-05-09 19:34 | -34.55589 | -58.42009 | 27 ft | 8 kts | 304° |
| 2026-05-09 19:34 | -34.55557 | -58.42064 | 27 ft | 8 kts | 304° |
| 2026-05-09 19:35 | -34.55524 | -58.42120 | 27 ft | 8 kts | 307° |
| 2026-05-09 19:35 | -34.55490 | -58.42174 | 27 ft | 8 kts | 307° |
| 2026-05-09 19:35 | -34.55457 | -58.42226 | 27 ft | 8 kts | 307° |
| 2026-05-09 19:35 | -34.55424 | -58.42281 | 27 ft | 8 kts | 307° |
| 2026-05-09 19:36 | -34.55389 | -58.42333 | 27 ft | 8 kts | 307° |
| 2026-05-09 19:36 | -34.55365 | -58.42380 | 27 ft | 6 kts | 286° |
| 2026-05-09 19:36 | -34.55460 | -58.42389 | 28 ft | 37 kts | 125° |
| 2026-05-09 19:37 | -34.55792 | -58.41805 | 24 ft | 130 kts | 124° |
| 2026-05-09 19:37 | -34.56467 | -58.40689 | 418 ft | 177 kts | 129° |
| 2026-05-09 19:37 | -34.57174 | -58.39458 | 1511 ft | 186 kts | 109° |
| 2026-05-09 19:37 | -34.57195 | -58.37814 | 1877 ft | 198 kts | 75° |
| 2026-05-09 19:38 | -34.56793 | -58.36231 | 2095 ft | 202 kts | 64° |
| 2026-05-09 19:38 | -34.56096 | -58.34659 | 2350 ft | 218 kts | 59° |
| 2026-05-09 19:38 | -34.55325 | -58.33050 | 2664 ft | 222 kts | 59° |
| 2026-05-09 19:38 | -34.54552 | -58.31429 | 2972 ft | 222 kts | 60° |
| 2026-05-09 19:39 | -34.53769 | -58.29846 | 3270 ft | 223 kts | 52° |
| 2026-05-09 19:39 | -34.52573 | -58.28639 | 3555 ft | 223 kts | 24° |
| 2026-05-09 19:39 | -34.51075 | -58.28246 | 3836 ft | 223 kts | 356° |
| 2026-05-09 19:39 | -34.50073 | -58.28483 | 4021 ft | 222 kts | 337° |
| 2026-05-09 19:40 | -34.48496 | -58.30042 | 4396 ft | 223 kts | 300° |
| 2026-05-09 19:40 | -34.48021 | -58.31786 | 4675 ft | 223 kts | 272° |
| 2026-05-09 19:40 | -34.48276 | -58.33632 | 4944 ft | 225 kts | 248° |
| 2026-05-09 19:40 | -34.48969 | -58.35345 | 4983 ft | 227 kts | 241° |
| 2026-05-09 19:41 | -34.49753 | -58.37000 | 5002 ft | 225 kts | 240° |
| 2026-05-09 19:41 | -34.50538 | -58.38631 | 5086 ft | 221 kts | 240° |
| 2026-05-09 19:41 | -34.51297 | -58.40217 | 5732 ft | 218 kts | 240° |
| 2026-05-09 19:41 | -34.52066 | -58.41836 | 6511 ft | 225 kts | 240° |
| 2026-05-09 19:42 | -34.52597 | -58.42960 | 7031 ft | 230 kts | 240° |
| 2026-05-09 19:42 | -34.53399 | -58.44667 | 7783 ft | 236 kts | 240° |
| 2026-05-09 19:42 | -34.53939 | -58.45820 | 8300 ft | 240 kts | 240° |
| 2026-05-09 19:42 | -34.55058 | -58.48217 | 9327 ft | 248 kts | 240° |
| 2026-05-09 19:43 | -34.55915 | -58.50057 | 10085 ft | 253 kts | 240° |
| 2026-05-09 19:43 | -34.56788 | -58.51930 | 10835 ft | 258 kts | 239° |
| 2026-05-09 19:43 | -34.57952 | -58.53602 | 11592 ft | 261 kts | 225° |
| 2026-05-09 19:43 | -34.59191 | -58.55191 | 12326 ft | 265 kts | 232° |
| 2026-05-09 19:44 | -34.60488 | -58.56824 | 13075 ft | 268 kts | 214° |
| 2026-05-09 19:44 | -34.62139 | -58.57814 | 13824 ft | 270 kts | 198° |
| 2026-05-09 19:44 | -34.63965 | -58.58389 | 14588 ft | 272 kts | 192° |
| 2026-05-09 19:44 | -34.65839 | -58.58742 | 15333 ft | 274 kts | 185° |
| 2026-05-09 19:45 | -34.67746 | -58.58766 | 16067 ft | 275 kts | 173° |
| 2026-05-09 19:45 | -34.69608 | -58.58266 | 16817 ft | 274 kts | 164° |
| 2026-05-09 19:45 | -34.71437 | -58.57610 | 17555 ft | 273 kts | 163° |
| 2026-05-09 19:45 | -34.73248 | -58.56937 | 18287 ft | 272 kts | 163° |
| 2026-05-09 19:46 | -34.75046 | -58.56267 | 19023 ft | 268 kts | 163° |
| 2026-05-09 19:46 | -34.76801 | -58.55614 | 19732 ft | 260 kts | 163° |
| 2026-05-09 19:46 | -34.78527 | -58.54972 | 20273 ft | 264 kts | 163° |
| 2026-05-09 19:46 | -34.80369 | -58.54350 | 20375 ft | 285 kts | 173° |
| 2026-05-09 19:47 | -34.82382 | -58.54579 | 20534 ft | 303 kts | 202° |
| 2026-05-09 19:47 | -34.84100 | -58.56094 | 20890 ft | 310 kts | 231° |
| 2026-05-09 19:47 | -34.85420 | -58.58191 | 21436 ft | 316 kts | 234° |
| 2026-05-09 19:47 | -34.86701 | -58.60348 | 21936 ft | 322 kts | 234° |
| 2026-05-09 19:48 | -34.88013 | -58.62580 | 22444 ft | 328 kts | 234° |
| 2026-05-09 19:48 | -34.89357 | -58.64858 | 22951 ft | 334 kts | 234° |
| 2026-05-09 19:48 | -34.90731 | -58.67166 | 23457 ft | 339 kts | 234° |
| 2026-05-09 19:48 | -34.91655 | -58.68710 | 23787 ft | 342 kts | 234° |
| 2026-05-09 19:49 | -34.93554 | -58.71871 | 24465 ft | 349 kts | 234° |
| 2026-05-09 19:49 | -34.95002 | -58.74272 | 24968 ft | 354 kts | 234° |
| 2026-05-09 19:49 | -34.96467 | -58.76699 | 25471 ft | 358 kts | 234° |
| 2026-05-09 19:49 | -34.97950 | -58.79155 | 25974 ft | 361 kts | 234° |
| 2026-05-09 19:50 | -34.99447 | -58.81632 | 26473 ft | 365 kts | 234° |
| 2026-05-09 19:50 | -35.00951 | -58.84125 | 26965 ft | 364 kts | 234° |
| 2026-05-09 19:50 | -35.02449 | -58.86608 | 27448 ft | 362 kts | 234° |
| 2026-05-09 19:50 | -35.03935 | -58.89073 | 27939 ft | 360 kts | 234° |
| 2026-05-09 19:51 | -35.05414 | -58.91528 | 28433 ft | 359 kts | 234° |
| 2026-05-09 19:51 | -35.06890 | -58.93981 | 28922 ft | 357 kts | 234° |
| 2026-05-09 19:51 | -35.08357 | -58.96420 | 29411 ft | 356 kts | 234° |
| 2026-05-09 19:51 | -35.09817 | -58.98850 | 29895 ft | 354 kts | 234° |
| 2026-05-09 19:52 | -35.11266 | -59.01262 | 30394 ft | 351 kts | 234° |
| 2026-05-09 19:52 | -35.12702 | -59.03655 | 30871 ft | 348 kts | 234° |
| 2026-05-09 19:52 | -35.14122 | -59.06023 | 31353 ft | 344 kts | 234° |
| 2026-05-09 19:52 | -35.15534 | -59.08378 | 31798 ft | 344 kts | 234° |
| 2026-05-09 19:53 | -35.16980 | -59.10792 | 31636 ft | 362 kts | 234° |
| 2026-05-09 19:53 | -35.18506 | -59.13341 | 31442 ft | 379 kts | 234° |
| 2026-05-09 19:53 | -35.20069 | -59.15955 | 31683 ft | 382 kts | 234° |
| 2026-05-09 19:53 | -35.21628 | -59.18615 | 31875 ft | 387 kts | 235° |
| 2026-05-09 19:54 | -35.23189 | -59.21329 | 32084 ft | 392 kts | 235° |
| 2026-05-09 19:54 | -35.24757 | -59.24071 | 32288 ft | 396 kts | 235° |
| 2026-05-09 19:54 | -35.26346 | -59.26850 | 32500 ft | 400 kts | 235° |
| 2026-05-09 19:54 | -35.27943 | -59.29639 | 32807 ft | 401 kts | 235° |
| 2026-05-09 19:55 | -35.29002 | -59.31487 | 33001 ft | 401 kts | 235° |
| 2026-05-09 19:55 | -35.31152 | -59.35238 | 33395 ft | 403 kts | 235° |
| 2026-05-09 19:55 | -35.32761 | -59.38046 | 33690 ft | 403 kts | 235° |
| 2026-05-09 19:56 | -35.35985 | -59.43677 | 34282 ft | 404 kts | 235° |
| 2026-05-09 19:56 | -35.37608 | -59.46488 | 34582 ft | 404 kts | 234° |
| 2026-05-09 19:56 | -35.39247 | -59.49287 | 34872 ft | 404 kts | 234° |
| 2026-05-09 19:56 | -35.40889 | -59.52080 | 35166 ft | 404 kts | 234° |
| 2026-05-09 19:57 | -35.42529 | -59.54868 | 35460 ft | 403 kts | 234° |
| 2026-05-09 19:57 | -35.44170 | -59.57661 | 35751 ft | 403 kts | 234° |
| 2026-05-09 19:57 | -35.45802 | -59.60446 | 36018 ft | 403 kts | 234° |
| 2026-05-09 19:58 | -35.49104 | -59.66095 | 36019 ft | 416 kts | 234° |
| 2026-05-09 19:58 | -35.52527 | -59.71962 | 36042 ft | 428 kts | 234° |
| 2026-05-09 19:59 | -35.56046 | -59.77999 | 36024 ft | 440 kts | 234° |
| 2026-05-09 19:59 | -35.59652 | -59.84189 | 36019 ft | 451 kts | 234° |
| 2026-05-09 20:00 | -35.63337 | -59.90516 | 36017 ft | 460 kts | 234° |
| 2026-05-09 20:00 | -35.67086 | -59.96959 | 36013 ft | 466 kts | 234° |
| 2026-05-09 20:01 | -35.70226 | -60.02357 | 36003 ft | 467 kts | 234° |
| 2026-05-09 20:01 | -35.74649 | -60.09964 | 36004 ft | 468 kts | 234° |
| 2026-05-09 20:02 | -35.78434 | -60.16478 | 36005 ft | 468 kts | 234° |
| 2026-05-09 20:02 | -35.82211 | -60.22980 | 35997 ft | 464 kts | 234° |
| 2026-05-09 20:03 | -35.87828 | -60.32655 | 36010 ft | 462 kts | 234° |
| 2026-05-09 20:03 | -35.91561 | -60.39090 | 36012 ft | 461 kts | 234° |
| 2026-05-09 20:04 | -35.95296 | -60.45531 | 36008 ft | 462 kts | 234° |
| 2026-05-09 20:04 | -35.99032 | -60.51976 | 36010 ft | 462 kts | 234° |
| 2026-05-09 20:05 | -36.02780 | -60.58445 | 36007 ft | 463 kts | 234° |
| 2026-05-09 20:05 | -36.06531 | -60.64923 | 36009 ft | 464 kts | 234° |
| 2026-05-09 20:06 | -36.10295 | -60.71427 | 36008 ft | 466 kts | 234° |
| 2026-05-09 20:06 | -36.14060 | -60.77935 | 36004 ft | 465 kts | 234° |
| 2026-05-09 20:07 | -36.16552 | -60.82244 | 36010 ft | 465 kts | 234° |
| 2026-05-09 20:07 | -36.21556 | -60.90901 | 36009 ft | 464 kts | 234° |
| 2026-05-09 20:08 | -36.27194 | -61.00662 | 36009 ft | 465 kts | 234° |
| 2026-05-09 20:09 | -36.30963 | -61.07192 | 36008 ft | 466 kts | 234° |
| 2026-05-09 20:09 | -36.34732 | -61.13724 | 36007 ft | 466 kts | 234° |
| 2026-05-09 20:10 | -36.38505 | -61.20266 | 36006 ft | 466 kts | 234° |
| 2026-05-09 20:10 | -36.42277 | -61.26810 | 36008 ft | 466 kts | 234° |
| 2026-05-09 20:11 | -36.46049 | -61.33357 | 36006 ft | 466 kts | 234° |
| 2026-05-09 20:11 | -36.49812 | -61.39891 | 36008 ft | 465 kts | 234° |
| 2026-05-09 20:12 | -36.53570 | -61.46421 | 36007 ft | 464 kts | 234° |
| 2026-05-09 20:12 | -36.57326 | -61.52949 | 36007 ft | 464 kts | 234° |
| 2026-05-09 20:13 | -36.61078 | -61.59473 | 36007 ft | 464 kts | 234° |
| 2026-05-09 20:13 | -36.64828 | -61.65999 | 35998 ft | 461 kts | 234° |
| 2026-05-09 20:14 | -36.68533 | -61.72448 | 35999 ft | 456 kts | 234° |
| 2026-05-09 20:14 | -36.72219 | -61.78866 | 36004 ft | 454 kts | 234° |
| 2026-05-09 20:15 | -36.75891 | -61.85264 | 36018 ft | 460 kts | 234° |
| 2026-05-09 20:15 | -36.79615 | -61.91755 | 36007 ft | 461 kts | 234° |
| 2026-05-09 20:16 | -36.83344 | -61.98259 | 36002 ft | 459 kts | 234° |
| 2026-05-09 20:16 | -36.87050 | -62.04724 | 35996 ft | 456 kts | 234° |
| 2026-05-09 20:17 | -36.90730 | -62.11149 | 35999 ft | 453 kts | 234° |
| 2026-05-09 20:17 | -36.94390 | -62.17540 | 36005 ft | 452 kts | 234° |
| 2026-05-09 20:18 | -36.98047 | -62.23929 | 36009 ft | 452 kts | 234° |
| 2026-05-09 20:18 | -37.00472 | -62.28168 | 36011 ft | 453 kts | 234° |
| 2026-05-09 20:19 | -37.05393 | -62.36774 | 36011 ft | 456 kts | 234° |
| 2026-05-09 20:19 | -37.09090 | -62.43243 | 36011 ft | 458 kts | 234° |
| 2026-05-09 20:20 | -37.12803 | -62.49744 | 36010 ft | 460 kts | 234° |
| 2026-05-09 20:20 | -37.16528 | -62.56269 | 36006 ft | 460 kts | 234° |
| 2026-05-09 20:21 | -37.20234 | -62.62762 | 36008 ft | 461 kts | 234° |
| 2026-05-09 20:21 | -37.23960 | -62.69296 | 36010 ft | 461 kts | 234° |
| 2026-05-09 20:22 | -37.27679 | -62.75819 | 36001 ft | 458 kts | 234° |
| 2026-05-09 20:22 | -37.31376 | -62.82306 | 36006 ft | 456 kts | 234° |
| 2026-05-09 20:23 | -37.35059 | -62.88774 | 36006 ft | 454 kts | 234° |
| 2026-05-09 20:23 | -37.38735 | -62.95231 | 36013 ft | 456 kts | 234° |
| 2026-05-09 20:24 | -37.42452 | -63.01763 | 36012 ft | 461 kts | 234° |
| 2026-05-09 20:24 | -37.45555 | -63.07219 | 36006 ft | 462 kts | 234° |
| 2026-05-09 20:25 | -37.49916 | -63.14892 | 35999 ft | 459 kts | 234° |
| 2026-05-09 20:25 | -37.53618 | -63.21409 | 36000 ft | 457 kts | 234° |
| 2026-05-09 20:26 | -37.57325 | -63.27937 | 36014 ft | 459 kts | 234° |
| 2026-05-09 20:26 | -37.61043 | -63.34488 | 36008 ft | 460 kts | 234° |
| 2026-05-09 20:27 | -37.64761 | -63.41041 | 36002 ft | 458 kts | 234° |
| 2026-05-09 20:27 | -37.68466 | -63.47576 | 36008 ft | 458 kts | 234° |
| 2026-05-09 20:28 | -37.72175 | -63.54121 | 36008 ft | 458 kts | 234° |
| 2026-05-09 20:28 | -37.75888 | -63.60677 | 36008 ft | 459 kts | 234° |
| 2026-05-09 20:29 | -37.81453 | -63.70506 | 36012 ft | 458 kts | 234° |
| 2026-05-09 20:29 | -37.84532 | -63.75949 | 36009 ft | 458 kts | 234° |
| 2026-05-09 20:30 | -37.88238 | -63.82502 | 36009 ft | 458 kts | 234° |
| 2026-05-09 20:30 | -37.91324 | -63.87963 | 36010 ft | 459 kts | 234° |
| 2026-05-09 20:31 | -37.95663 | -63.95644 | 36008 ft | 459 kts | 234° |
| 2026-05-09 20:31 | -37.99386 | -64.02238 | 35739 ft | 462 kts | 234° |
| 2026-05-09 20:32 | -38.01249 | -64.05539 | 35491 ft | 459 kts | 234° |
| 2026-05-09 20:32 | -38.03089 | -64.08799 | 35603 ft | 449 kts | 234° |
| 2026-05-09 20:32 | -38.04899 | -64.12008 | 35855 ft | 447 kts | 234° |
| 2026-05-09 20:32 | -38.06712 | -64.15222 | 36014 ft | 449 kts | 234° |
| 2026-05-09 20:33 | -38.10387 | -64.21740 | 36010 ft | 459 kts | 234° |
| 2026-05-09 20:33 | -38.14110 | -64.28347 | 35998 ft | 459 kts | 234° |
| 2026-05-09 20:34 | -38.17817 | -64.34928 | 35999 ft | 456 kts | 234° |
| 2026-05-09 20:34 | -38.21502 | -64.41475 | 36002 ft | 455 kts | 234° |
| 2026-05-09 20:35 | -38.24979 | -64.47654 | 36015 ft | 456 kts | 234° |
| 2026-05-09 20:35 | -38.28696 | -64.54265 | 36011 ft | 461 kts | 234° |
| 2026-05-09 20:36 | -38.32422 | -64.60893 | 36000 ft | 459 kts | 234° |
| 2026-05-09 20:36 | -38.35407 | -64.66522 | 35996 ft | 457 kts | 242° |
| 2026-05-09 20:37 | -38.38635 | -64.75020 | 36009 ft | 460 kts | 245° |
| 2026-05-09 20:37 | -38.41275 | -64.82449 | 36007 ft | 460 kts | 246° |
| 2026-05-09 20:38 | -38.43901 | -64.89879 | 36007 ft | 459 kts | 246° |
| 2026-05-09 20:38 | -38.46526 | -64.97308 | 36006 ft | 459 kts | 246° |
| 2026-05-09 20:39 | -38.49151 | -65.04735 | 36008 ft | 459 kts | 246° |
| 2026-05-09 20:39 | -38.51776 | -65.12168 | 36010 ft | 459 kts | 246° |
| 2026-05-09 20:40 | -38.54396 | -65.19588 | 36008 ft | 458 kts | 246° |
| 2026-05-09 20:40 | -38.57015 | -65.27006 | 36007 ft | 458 kts | 246° |
| 2026-05-09 20:41 | -38.59632 | -65.34421 | 36007 ft | 457 kts | 246° |
| 2026-05-09 20:41 | -38.62157 | -65.41889 | 35986 ft | 459 kts | 255° |
| 2026-05-09 20:42 | -38.63121 | -65.49941 | 36004 ft | 459 kts | 261° |
| 2026-05-09 20:42 | -38.64691 | -65.57389 | 36001 ft | 459 kts | 247° |
| 2026-05-09 20:43 | -38.67587 | -65.64582 | 36015 ft | 458 kts | 239° |
| 2026-05-09 20:43 | -38.70978 | -65.71488 | 36006 ft | 458 kts | 237° |
| 2026-05-09 20:44 | -38.74399 | -65.78371 | 36008 ft | 459 kts | 238° |
| 2026-05-09 20:44 | -38.77772 | -65.85305 | 36005 ft | 458 kts | 238° |
| 2026-05-09 20:45 | -38.81111 | -65.92246 | 36006 ft | 457 kts | 238° |
| 2026-05-09 20:45 | -38.84447 | -65.99201 | 36011 ft | 459 kts | 238° |
| 2026-05-09 20:46 | -38.87793 | -66.06182 | 36009 ft | 460 kts | 238° |
| 2026-05-09 20:46 | -38.91135 | -66.13169 | 36006 ft | 459 kts | 238° |
| 2026-05-09 20:47 | -38.94463 | -66.20159 | 36000 ft | 459 kts | 239° |
| 2026-05-09 20:47 | -38.96135 | -66.23681 | 35675 ft | 463 kts | 239° |
| 2026-05-09 20:47 | -38.97804 | -66.27201 | 35324 ft | 459 kts | 239° |
| 2026-05-09 20:48 | -38.99457 | -66.30691 | 35021 ft | 453 kts | 239° |
| 2026-05-09 20:48 | -39.01086 | -66.34132 | 34733 ft | 448 kts | 239° |
| 2026-05-09 20:48 | -39.02697 | -66.37539 | 34487 ft | 446 kts | 239° |
| 2026-05-09 20:48 | -39.04310 | -66.40956 | 34188 ft | 446 kts | 239° |
| 2026-05-09 20:49 | -39.05376 | -66.43215 | 33994 ft | 445 kts | 239° |
| 2026-05-09 20:49 | -39.06460 | -66.45514 | 33788 ft | 443 kts | 239° |
| 2026-05-09 20:49 | -39.09085 | -66.51087 | 33443 ft | 429 kts | 239° |
| 2026-05-09 20:49 | -39.10626 | -66.54364 | 32870 ft | 428 kts | 239° |
| 2026-05-09 20:50 | -39.12148 | -66.57603 | 32733 ft | 417 kts | 239° |
| 2026-05-09 20:50 | -39.13633 | -66.60766 | 32488 ft | 409 kts | 239° |
| 2026-05-09 20:50 | -39.15087 | -66.63868 | 32334 ft | 399 kts | 239° |
| 2026-05-09 20:50 | -39.16510 | -66.66906 | 32173 ft | 397 kts | 239° |
| 2026-05-09 20:51 | -39.17945 | -66.69971 | 32053 ft | 406 kts | 239° |
| 2026-05-09 20:51 | -39.19418 | -66.73123 | 31876 ft | 409 kts | 239° |
| 2026-05-09 20:51 | -39.20879 | -66.76251 | 31699 ft | 405 kts | 239° |
| 2026-05-09 20:51 | -39.22317 | -66.79333 | 31528 ft | 399 kts | 239° |
| 2026-05-09 20:52 | -39.23725 | -66.82354 | 31379 ft | 398 kts | 239° |
| 2026-05-09 20:52 | -39.25171 | -66.85459 | 31219 ft | 398 kts | 239° |
| 2026-05-09 20:52 | -39.26595 | -66.88518 | 31062 ft | 397 kts | 239° |
| 2026-05-09 20:52 | -39.27990 | -66.91520 | 30898 ft | 395 kts | 239° |
| 2026-05-09 20:53 | -39.29400 | -66.94557 | 30741 ft | 393 kts | 239° |
| 2026-05-09 20:53 | -39.30798 | -66.97570 | 30581 ft | 391 kts | 239° |
| 2026-05-09 20:53 | -39.32192 | -67.00578 | 30424 ft | 389 kts | 239° |
| 2026-05-09 20:53 | -39.33580 | -67.03576 | 30269 ft | 388 kts | 239° |
| 2026-05-09 20:54 | -39.34962 | -67.06564 | 30113 ft | 387 kts | 239° |
| 2026-05-09 20:54 | -39.36341 | -67.09548 | 29957 ft | 386 kts | 239° |
| 2026-05-09 20:54 | -39.37715 | -67.12522 | 29795 ft | 384 kts | 239° |
| 2026-05-09 20:54 | -39.39078 | -67.15479 | 29638 ft | 382 kts | 239° |
| 2026-05-09 20:55 | -39.40435 | -67.18422 | 29487 ft | 382 kts | 239° |
| 2026-05-09 20:55 | -39.41334 | -67.20375 | 29381 ft | 381 kts | 239° |
| 2026-05-09 20:55 | -39.43139 | -67.24299 | 29161 ft | 377 kts | 239° |
| 2026-05-09 20:55 | -39.44477 | -67.27210 | 29006 ft | 377 kts | 239° |
| 2026-05-09 20:56 | -39.45814 | -67.30121 | 28837 ft | 376 kts | 239° |
| 2026-05-09 20:56 | -39.48469 | -67.35913 | 28514 ft | 372 kts | 239° |
| 2026-05-09 20:56 | -39.49787 | -67.38790 | 28363 ft | 371 kts | 239° |
| 2026-05-09 20:57 | -39.51102 | -67.41666 | 28205 ft | 371 kts | 239° |
| 2026-05-09 20:57 | -39.52415 | -67.44539 | 28045 ft | 371 kts | 239° |
| 2026-05-09 20:57 | -39.53727 | -67.47412 | 27885 ft | 370 kts | 239° |
| 2026-05-09 20:57 | -39.55035 | -67.50279 | 27717 ft | 370 kts | 239° |
| 2026-05-09 20:58 | -39.56341 | -67.53144 | 27566 ft | 369 kts | 239° |
| 2026-05-09 20:58 | -39.57626 | -67.55966 | 27408 ft | 368 kts | 239° |
| 2026-05-09 20:58 | -39.58927 | -67.58826 | 27247 ft | 368 kts | 239° |
| 2026-05-09 20:58 | -39.60219 | -67.61670 | 27082 ft | 365 kts | 239° |
| 2026-05-09 20:59 | -39.61503 | -67.64497 | 26920 ft | 362 kts | 239° |
| 2026-05-09 20:59 | -39.62774 | -67.67299 | 26764 ft | 360 kts | 239° |
| 2026-05-09 20:59 | -39.64043 | -67.70098 | 26610 ft | 359 kts | 239° |
| 2026-05-09 21:00 | -39.66564 | -67.75666 | 26293 ft | 356 kts | 240° |
| 2026-05-09 21:00 | -39.67811 | -67.78425 | 26135 ft | 353 kts | 240° |
| 2026-05-09 21:00 | -39.69048 | -67.81165 | 25980 ft | 351 kts | 240° |
| 2026-05-09 21:00 | -39.70277 | -67.83887 | 25829 ft | 350 kts | 240° |
| 2026-05-09 21:01 | -39.71502 | -67.86606 | 25672 ft | 348 kts | 240° |
| 2026-05-09 21:01 | -39.72722 | -67.89313 | 25519 ft | 346 kts | 240° |
| 2026-05-09 21:01 | -39.73134 | -67.90229 | 25466 ft | 346 kts | 240° |
| 2026-05-09 21:02 | -39.76339 | -67.97357 | 25058 ft | 341 kts | 240° |
| 2026-05-09 21:02 | -39.77528 | -68.00005 | 24904 ft | 338 kts | 240° |
| 2026-05-09 21:02 | -39.78705 | -68.02629 | 24748 ft | 333 kts | 240° |
| 2026-05-09 21:02 | -39.79864 | -68.05214 | 24597 ft | 329 kts | 240° |
| 2026-05-09 21:03 | -39.81015 | -68.07778 | 24454 ft | 326 kts | 239° |
| 2026-05-09 21:03 | -39.82216 | -68.10266 | 24306 ft | 324 kts | 237° |
| 2026-05-09 21:03 | -39.83458 | -68.12705 | 24166 ft | 323 kts | 236° |
| 2026-05-09 21:03 | -39.84706 | -68.15126 | 24024 ft | 321 kts | 236° |
| 2026-05-09 21:04 | -39.85951 | -68.17542 | 23880 ft | 320 kts | 236° |
| 2026-05-09 21:04 | -39.87188 | -68.19950 | 23737 ft | 320 kts | 236° |
| 2026-05-09 21:04 | -39.88419 | -68.22356 | 23589 ft | 320 kts | 237° |
| 2026-05-09 21:04 | -39.89650 | -68.24771 | 23450 ft | 320 kts | 237° |
| 2026-05-09 21:05 | -39.90878 | -68.27187 | 23305 ft | 320 kts | 237° |
| 2026-05-09 21:05 | -39.92104 | -68.29605 | 23159 ft | 320 kts | 237° |
| 2026-05-09 21:05 | -39.93334 | -68.32032 | 23014 ft | 321 kts | 237° |
| 2026-05-09 21:05 | -39.94565 | -68.34464 | 22869 ft | 321 kts | 237° |
| 2026-05-09 21:06 | -39.95794 | -68.36896 | 22721 ft | 322 kts | 237° |
| 2026-05-09 21:06 | -39.97026 | -68.39334 | 22573 ft | 322 kts | 237° |
| 2026-05-09 21:06 | -39.98258 | -68.41776 | 22426 ft | 322 kts | 237° |
| 2026-05-09 21:06 | -39.99487 | -68.44215 | 22279 ft | 322 kts | 237° |
| 2026-05-09 21:07 | -40.00717 | -68.46656 | 22132 ft | 322 kts | 237° |
| 2026-05-09 21:07 | -40.01930 | -68.49065 | 21983 ft | 321 kts | 237° |
| 2026-05-09 21:07 | -40.02343 | -68.49887 | 21933 ft | 321 kts | 237° |
| 2026-05-09 21:07 | -40.03155 | -68.51501 | 21828 ft | 321 kts | 237° |
| 2026-05-09 21:08 | -40.05592 | -68.56352 | 21539 ft | 319 kts | 237° |
| 2026-05-09 21:08 | -40.06804 | -68.58769 | 21391 ft | 317 kts | 237° |
| 2026-05-09 21:08 | -40.08010 | -68.61173 | 21247 ft | 316 kts | 237° |
| 2026-05-09 21:08 | -40.09213 | -68.63573 | 21102 ft | 315 kts | 237° |
| 2026-05-09 21:09 | -40.10408 | -68.65962 | 20957 ft | 314 kts | 237° |
| 2026-05-09 21:09 | -40.11600 | -68.68344 | 20805 ft | 313 kts | 237° |
| 2026-05-09 21:09 | -40.12787 | -68.70718 | 20668 ft | 312 kts | 237° |
| 2026-05-09 21:09 | -40.13966 | -68.73080 | 20522 ft | 310 kts | 237° |
| 2026-05-09 21:10 | -40.15141 | -68.75434 | 20374 ft | 308 kts | 237° |
| 2026-05-09 21:10 | -40.16310 | -68.77778 | 20237 ft | 307 kts | 237° |
| 2026-05-09 21:10 | -40.17471 | -68.80108 | 20092 ft | 305 kts | 237° |
| 2026-05-09 21:10 | -40.18627 | -68.82428 | 19952 ft | 304 kts | 237° |
| 2026-05-09 21:11 | -40.19778 | -68.84741 | 19811 ft | 303 kts | 237° |
| 2026-05-09 21:12 | -40.24351 | -68.93949 | 19255 ft | 303 kts | 237° |
| 2026-05-09 21:12 | -40.25501 | -68.96269 | 19114 ft | 305 kts | 237° |
| 2026-05-09 21:12 | -40.26656 | -68.98600 | 18964 ft | 305 kts | 237° |
| 2026-05-09 21:12 | -40.27805 | -69.00922 | 18817 ft | 304 kts | 237° |
| 2026-05-09 21:13 | -40.28935 | -69.03206 | 18675 ft | 302 kts | 237° |
| 2026-05-09 21:13 | -40.30071 | -69.05505 | 18532 ft | 300 kts | 237° |
| 2026-05-09 21:13 | -40.31201 | -69.07792 | 18391 ft | 299 kts | 237° |
| 2026-05-09 21:13 | -40.31963 | -69.09334 | 18297 ft | 298 kts | 237° |
| 2026-05-09 21:14 | -40.33455 | -69.12359 | 18115 ft | 298 kts | 237° |
| 2026-05-09 21:14 | -40.34579 | -69.14640 | 17973 ft | 298 kts | 237° |
| 2026-05-09 21:14 | -40.35703 | -69.16921 | 17835 ft | 298 kts | 237° |
| 2026-05-09 21:14 | -40.36827 | -69.19202 | 17692 ft | 298 kts | 237° |
| 2026-05-09 21:15 | -40.37950 | -69.21484 | 17547 ft | 297 kts | 237° |
| 2026-05-09 21:15 | -40.39069 | -69.23758 | 17407 ft | 296 kts | 237° |
| 2026-05-09 21:15 | -40.40180 | -69.26020 | 17265 ft | 295 kts | 237° |
| 2026-05-09 21:15 | -40.41291 | -69.28283 | 17126 ft | 294 kts | 237° |
| 2026-05-09 21:16 | -40.42399 | -69.30541 | 16985 ft | 294 kts | 237° |
| 2026-05-09 21:16 | -40.43503 | -69.32791 | 16847 ft | 293 kts | 237° |
| 2026-05-09 21:16 | -40.44605 | -69.35041 | 16706 ft | 293 kts | 237° |
| 2026-05-09 21:16 | -40.45703 | -69.37285 | 16568 ft | 292 kts | 237° |
| 2026-05-09 21:17 | -40.46802 | -69.39529 | 16428 ft | 292 kts | 237° |
| 2026-05-09 21:17 | -40.47898 | -69.41772 | 16289 ft | 292 kts | 237° |
| 2026-05-09 21:17 | -40.48993 | -69.44014 | 16148 ft | 291 kts | 237° |
| 2026-05-09 21:17 | -40.50086 | -69.46253 | 16009 ft | 291 kts | 237° |
| 2026-05-09 21:18 | -40.51178 | -69.48491 | 15868 ft | 291 kts | 237° |
| 2026-05-09 21:18 | -40.52268 | -69.50728 | 15730 ft | 291 kts | 237° |
| 2026-05-09 21:18 | -40.53356 | -69.52961 | 15589 ft | 290 kts | 237° |
| 2026-05-09 21:18 | -40.54440 | -69.55189 | 15444 ft | 288 kts | 237° |
| 2026-05-09 21:19 | -40.57286 | -69.61043 | 15076 ft | 283 kts | 238° |
| 2026-05-09 21:19 | -40.58342 | -69.63218 | 14941 ft | 282 kts | 238° |
| 2026-05-09 21:20 | -40.59056 | -69.64689 | 14848 ft | 282 kts | 238° |
| 2026-05-09 21:20 | -40.60458 | -69.67581 | 14677 ft | 284 kts | 238° |
| 2026-05-09 21:20 | -40.61521 | -69.69776 | 14542 ft | 285 kts | 238° |
| 2026-05-09 21:20 | -40.62584 | -69.71971 | 14406 ft | 284 kts | 238° |
| 2026-05-09 21:21 | -40.63643 | -69.74160 | 14273 ft | 283 kts | 238° |
| 2026-05-09 21:21 | -40.64696 | -69.76338 | 14121 ft | 281 kts | 238° |
| 2026-05-09 21:21 | -40.65741 | -69.78502 | 13985 ft | 280 kts | 238° |
| 2026-05-09 21:21 | -40.66784 | -69.80662 | 13851 ft | 279 kts | 238° |
| 2026-05-09 21:22 | -40.67821 | -69.82812 | 13715 ft | 278 kts | 238° |
| 2026-05-09 21:22 | -40.68856 | -69.84958 | 13590 ft | 278 kts | 238° |
| 2026-05-09 21:22 | -40.69892 | -69.87109 | 13446 ft | 278 kts | 238° |
| 2026-05-09 21:22 | -40.70931 | -69.89267 | 13316 ft | 279 kts | 238° |
| 2026-05-09 21:23 | -40.71969 | -69.91425 | 13178 ft | 279 kts | 238° |
| 2026-05-09 21:23 | -40.73008 | -69.93587 | 13052 ft | 279 kts | 238° |
| 2026-05-09 21:23 | -40.74046 | -69.95746 | 12908 ft | 278 kts | 238° |
| 2026-05-09 21:23 | -40.75074 | -69.97889 | 12761 ft | 275 kts | 238° |
| 2026-05-09 21:24 | -40.76090 | -70.00007 | 12629 ft | 273 kts | 238° |
| 2026-05-09 21:24 | -40.77102 | -70.02118 | 12492 ft | 271 kts | 238° |
| 2026-05-09 21:24 | -40.78107 | -70.04215 | 12362 ft | 271 kts | 238° |
| 2026-05-09 21:24 | -40.79114 | -70.06319 | 12231 ft | 271 kts | 238° |
| 2026-05-09 21:25 | -40.80123 | -70.08428 | 12102 ft | 272 kts | 238° |
| 2026-05-09 21:25 | -40.81133 | -70.10540 | 11965 ft | 273 kts | 238° |
| 2026-05-09 21:25 | -40.82144 | -70.12658 | 11831 ft | 272 kts | 238° |
| 2026-05-09 21:25 | -40.83151 | -70.14767 | 11690 ft | 271 kts | 238° |
| 2026-05-09 21:26 | -40.84154 | -70.16868 | 11558 ft | 270 kts | 238° |
| 2026-05-09 21:26 | -40.85152 | -70.18962 | 11427 ft | 268 kts | 238° |
| 2026-05-09 21:26 | -40.86144 | -70.21045 | 11293 ft | 267 kts | 238° |
| 2026-05-09 21:26 | -40.87131 | -70.23118 | 11161 ft | 266 kts | 238° |
| 2026-05-09 21:27 | -40.88116 | -70.25188 | 11032 ft | 266 kts | 238° |
| 2026-05-09 21:27 | -40.89097 | -70.27251 | 10896 ft | 265 kts | 238° |
| 2026-05-09 21:27 | -40.90063 | -70.29283 | 10768 ft | 264 kts | 238° |
| 2026-05-09 21:27 | -40.91040 | -70.31341 | 10640 ft | 264 kts | 238° |
| 2026-05-09 21:28 | -40.92018 | -70.33404 | 10513 ft | 265 kts | 238° |
| 2026-05-09 21:28 | -40.93000 | -70.35474 | 10383 ft | 266 kts | 238° |
| 2026-05-09 21:28 | -40.93984 | -70.37550 | 10248 ft | 267 kts | 238° |
| 2026-05-09 21:28 | -40.94964 | -70.39620 | 10115 ft | 265 kts | 238° |
| 2026-05-09 21:29 | -40.95942 | -70.41685 | 9976 ft | 263 kts | 238° |
| 2026-05-09 21:29 | -40.96910 | -70.43731 | 9844 ft | 262 kts | 238° |
| 2026-05-09 21:29 | -40.97930 | -70.45726 | 9714 ft | 262 kts | 232° |
| 2026-05-09 21:29 | -40.99081 | -70.47588 | 9590 ft | 262 kts | 230° |
| 2026-05-09 21:30 | -41.00253 | -70.49433 | 9464 ft | 262 kts | 230° |
| 2026-05-09 21:30 | -41.01418 | -70.51286 | 9335 ft | 262 kts | 231° |
| 2026-05-09 21:30 | -41.02573 | -70.53143 | 9199 ft | 261 kts | 231° |
| 2026-05-09 21:30 | -41.03721 | -70.54996 | 9068 ft | 259 kts | 231° |
| 2026-05-09 21:31 | -41.04862 | -70.56843 | 8936 ft | 258 kts | 231° |
| 2026-05-09 21:31 | -41.05996 | -70.58682 | 8808 ft | 258 kts | 231° |
| 2026-05-09 21:31 | -41.07131 | -70.60524 | 8685 ft | 257 kts | 231° |
| 2026-05-09 21:31 | -41.08262 | -70.62361 | 8549 ft | 257 kts | 231° |
| 2026-05-09 21:32 | -41.09392 | -70.64198 | 8428 ft | 257 kts | 231° |
| 2026-05-09 21:32 | -41.10140 | -70.65415 | 8346 ft | 257 kts | 231° |
| 2026-05-09 21:32 | -41.11652 | -70.67875 | 8165 ft | 257 kts | 231° |
| 2026-05-09 21:32 | -41.12776 | -70.69706 | 8036 ft | 255 kts | 231° |
| 2026-05-09 21:33 | -41.13879 | -70.71505 | 7913 ft | 254 kts | 231° |
| 2026-05-09 21:33 | -41.14994 | -70.73321 | 7781 ft | 253 kts | 231° |
| 2026-05-09 21:33 | -41.16104 | -70.75132 | 7658 ft | 253 kts | 231° |
| 2026-05-09 21:33 | -41.17217 | -70.76948 | 7519 ft | 254 kts | 231° |
| 2026-05-09 21:34 | -41.18331 | -70.78767 | 7406 ft | 254 kts | 231° |
| 2026-05-09 21:34 | -41.19445 | -70.80587 | 7261 ft | 254 kts | 231° |
| 2026-05-09 21:34 | -41.20558 | -70.82408 | 7093 ft | 253 kts | 231° |
| 2026-05-09 21:34 | -41.21663 | -70.84216 | 6936 ft | 251 kts | 231° |
| 2026-05-09 21:35 | -41.22765 | -70.86019 | 6763 ft | 251 kts | 231° |
| 2026-05-09 21:35 | -41.23647 | -70.87987 | 6572 ft | 251 kts | 257° |
| 2026-05-09 21:35 | -41.23573 | -70.90262 | 6456 ft | 248 kts | 285° |
| 2026-05-09 21:35 | -41.23077 | -70.92466 | 6281 ft | 250 kts | 288° |
| 2026-05-09 21:36 | -41.22450 | -70.94633 | 5970 ft | 251 kts | 293° |
| 2026-05-09 21:36 | -41.21734 | -70.96706 | 5640 ft | 242 kts | 295° |
| 2026-05-09 21:36 | -41.21043 | -70.98670 | 5380 ft | 226 kts | 295° |
| 2026-05-09 21:36 | -41.20416 | -71.00473 | 5307 ft | 206 kts | 294° |
| 2026-05-09 21:37 | -41.19827 | -71.02176 | 4849 ft | 200 kts | 294° |
| 2026-05-09 21:37 | -41.19280 | -71.03755 | 4671 ft | 174 kts | 294° |
| 2026-05-09 21:37 | -41.18786 | -71.05181 | 4269 ft | 165 kts | 294° |
| 2026-05-09 21:37 | -41.18329 | -71.06501 | 4003 ft | 148 kts | 294° |
| 2026-05-09 21:38 | -41.17894 | -71.07757 | 3936 ft | 166 kts | 294° |
| 2026-05-09 21:38 | -41.17561 | -71.08712 | 4001 ft | 174 kts | 295° |
| 2026-05-09 21:38 | -41.17023 | -71.10229 | 3741 ft | 178 kts | 295° |
| 2026-05-09 21:38 | -41.16362 | -71.12146 | 3135 ft | 163 kts | 293° |
| 2026-05-09 21:39 | -41.15930 | -71.13433 | 2932 ft | 142 kts | 294° |
| 2026-05-09 21:39 | -41.15549 | -71.14533 | 2772 ft | 120 kts | 294° |
| 2026-05-09 21:39 | -41.15262 | -71.15363 | 2760 ft | 66 kts | 294° |
| 2026-05-09 21:39 | -41.15145 | -71.15597 | 2759 ft | 20 kts | 342° |
| 2026-05-09 21:40 | -41.15074 | -71.15596 | 2759 ft | 0 kts | 359° |
| 2026-05-09 21:41 | -41.15055 | -71.15597 | 2759 ft | 7 kts | 356° |
| 2026-05-09 21:41 | -41.15000 | -71.15651 | 2759 ft | 14 kts | 298° |
| 2026-05-09 21:41 | -41.14952 | -71.15789 | 2758 ft | 18 kts | 294° |
| 2026-05-09 21:41 | -41.14902 | -71.15936 | 2757 ft | 13 kts | 295° |
| 2026-05-09 21:42 | -41.14868 | -71.16031 | 2756 ft | 12 kts | 295° |
| 2026-05-09 21:42 | -41.14830 | -71.16137 | 2758 ft | 13 kts | 295° |
| 2026-05-09 21:42 | -41.14774 | -71.16216 | 2756 ft | 11 kts | 354° |
| 2026-05-09 21:42 | -41.14716 | -71.16175 | 2754 ft | 7 kts | 33° |
| 2026-05-09 21:43 | -41.14676 | -71.16150 | 2754 ft | 4 kts | 24° |
| 2026-05-09 21:43 | -41.14670 | -71.16146 | 2754 ft | 1 kts | 24° |
| 2026-05-09 21:43 | -41.14663 | -71.16142 | 2759 ft | 1 kts | 24° |
| 2026-05-09 21:43 | -41.14662 | -71.16141 | 2758 ft | 0 kts | 24° |